sensor_id;sensor_type;location;lat;lon;timestamp;pressure;altitude;pressure_sealevel;temperature;humidity
71795;BME280;59641;45.188;5.712;2022-11-02T00:00:30;100103.53;;;17.73;64.88
71795;BME280;59641;45.188;5.712;2022-11-02T00:02:56;100101.06;;;17.71;64.90
71795;BME280;59641;45.188;5.712;2022-11-02T00:05:22;100108.63;;;17.69;64.72
71795;BME280;59641;45.188;5.712;2022-11-02T00:07:54;100108.88;;;17.67;64.93
71795;BME280;59641;45.188;5.712;2022-11-02T00:10:20;100117.00;;;17.67;64.69
71795;BME280;59641;45.188;5.712;2022-11-02T00:12:47;100120.00;;;17.66;64.74
71795;BME280;59641;45.188;5.712;2022-11-02T00:15:13;100117.75;;;17.63;64.47
71795;BME280;59641;45.188;5.712;2022-11-02T00:17:44;100125.34;;;17.61;64.35
71795;BME280;59641;45.188;5.712;2022-11-02T00:20:11;100118.53;;;17.58;65.04
71795;BME280;59641;45.188;5.712;2022-11-02T00:22:38;100128.78;;;17.56;64.86
71795;BME280;59641;45.188;5.712;2022-11-02T00:25:06;100120.91;;;17.55;64.61
71795;BME280;59641;45.188;5.712;2022-11-02T00:27:33;100126.31;;;17.55;64.44
71795;BME280;59641;45.188;5.712;2022-11-02T00:29:59;100117.38;;;17.54;64.36
71795;BME280;59641;45.188;5.712;2022-11-02T00:32:26;100115.69;;;17.53;64.77
71795;BME280;59641;45.188;5.712;2022-11-02T00:34:51;100120.06;;;17.54;64.41
71795;BME280;59641;45.188;5.712;2022-11-02T00:37:17;100127.13;;;17.55;64.81
71795;BME280;59641;45.188;5.712;2022-11-02T00:39:42;100135.53;;;17.54;64.59
71795;BME280;59641;45.188;5.712;2022-11-02T00:42:07;100133.06;;;17.52;64.11
71795;BME280;59641;45.188;5.712;2022-11-02T00:44:33;100141.38;;;17.45;63.89
71795;BME280;59641;45.188;5.712;2022-11-02T00:46:58;100142.94;;;17.41;64.05
71795;BME280;59641;45.188;5.712;2022-11-02T00:49:24;100138.00;;;17.38;63.98
71795;BME280;59641;45.188;5.712;2022-11-02T00:51:49;100140.38;;;17.35;64.16
71795;BME280;59641;45.188;5.712;2022-11-02T00:54:15;100132.47;;;17.33;64.46
71795;BME280;59641;45.188;5.712;2022-11-02T00:56:40;100130.25;;;17.30;64.70
71795;BME280;59641;45.188;5.712;2022-11-02T00:59:05;100131.31;;;17.29;64.43
71795;BME280;59641;45.188;5.712;2022-11-02T01:01:31;100129.19;;;17.31;64.78
71795;BME280;59641;45.188;5.712;2022-11-02T01:03:56;100137.31;;;17.31;64.48
71795;BME280;59641;45.188;5.712;2022-11-02T01:06:22;100131.09;;;17.31;64.67
71795;BME280;59641;45.188;5.712;2022-11-02T01:08:47;100125.88;;;17.29;64.43
71795;BME280;59641;45.188;5.712;2022-11-02T01:11:18;100132.16;;;17.30;64.42
71795;BME280;59641;45.188;5.712;2022-11-02T01:13:44;100121.03;;;17.31;64.55
71795;BME280;59641;45.188;5.712;2022-11-02T01:16:11;100125.66;;;17.31;64.28
71795;BME280;59641;45.188;5.712;2022-11-02T01:18:37;100119.16;;;17.32;64.44
71795;BME280;59641;45.188;5.712;2022-11-02T01:21:02;100118.09;;;17.33;64.82
71795;BME280;59641;45.188;5.712;2022-11-02T01:23:31;100115.16;;;17.34;64.77
71795;BME280;59641;45.188;5.712;2022-11-02T01:25:57;100113.25;;;17.35;64.27
71795;BME280;59641;45.188;5.712;2022-11-02T01:28:23;100114.06;;;17.35;64.87
71795;BME280;59641;45.188;5.712;2022-11-02T01:30:48;100111.59;;;17.34;64.63
71795;BME280;59641;45.188;5.712;2022-11-02T01:33:13;100116.78;;;17.35;64.44
71795;BME280;59641;45.188;5.712;2022-11-02T01:35:39;100113.00;;;17.36;64.66
71795;BME280;59641;45.188;5.712;2022-11-02T01:38:04;100111.34;;;17.35;64.61
71795;BME280;59641;45.188;5.712;2022-11-02T01:40:34;100108.88;;;17.34;64.54
71795;BME280;59641;45.188;5.712;2022-11-02T01:43:20;100110.19;;;17.31;64.37
71795;BME280;59641;45.188;5.712;2022-11-02T01:45:47;100099.84;;;17.28;64.60
71795;BME280;59641;45.188;5.712;2022-11-02T01:48:14;100104.97;;;17.24;64.35
71795;BME280;59641;45.188;5.712;2022-11-02T01:50:40;100106.81;;;17.24;64.50
71795;BME280;59641;45.188;5.712;2022-11-02T01:53:06;100095.66;;;17.20;64.93
71795;BME280;59641;45.188;5.712;2022-11-02T01:55:33;100094.84;;;17.20;64.86
71795;BME280;59641;45.188;5.712;2022-11-02T01:58:06;100101.91;;;17.21;64.37
71795;BME280;59641;45.188;5.712;2022-11-02T02:00:34;100099.19;;;17.21;64.43
71795;BME280;59641;45.188;5.712;2022-11-02T02:03:09;100097.56;;;17.20;64.36
71795;BME280;59641;45.188;5.712;2022-11-02T02:05:41;100096.72;;;17.19;64.57
71795;BME280;59641;45.188;5.712;2022-11-02T02:08:08;100096.16;;;17.17;64.71
71795;BME280;59641;45.188;5.712;2022-11-02T02:10:36;100096.16;;;17.17;64.24
71795;BME280;59641;45.188;5.712;2022-11-02T02:13:03;100088.25;;;17.16;64.39
71795;BME280;59641;45.188;5.712;2022-11-02T02:15:40;100083.88;;;17.15;64.51
71795;BME280;59641;45.188;5.712;2022-11-02T02:26:49;100093.91;;;17.14;64.63
71795;BME280;59641;45.188;5.712;2022-11-02T02:29:24;100092.50;;;17.12;64.73
71795;BME280;59641;45.188;5.712;2022-11-02T02:37:31;100097.28;;;17.21;64.63
71795;BME280;59641;45.188;5.712;2022-11-02T02:42:30;100085.97;;;17.24;64.73
71795;BME280;59641;45.188;5.712;2022-11-02T02:45:07;100084.06;;;17.25;64.74
71795;BME280;59641;45.188;5.712;2022-11-02T02:47:48;100084.31;;;17.23;64.43
71795;BME280;59641;45.188;5.712;2022-11-02T02:50:20;100088.41;;;17.26;64.98
71795;BME280;59641;45.188;5.712;2022-11-02T02:52:49;100086.53;;;17.27;64.49
71795;BME280;59641;45.188;5.712;2022-11-02T02:55:19;100090.91;;;17.28;64.61
71795;BME280;59641;45.188;5.712;2022-11-02T02:58:11;100090.09;;;17.27;64.41
71795;BME280;59641;45.188;5.712;2022-11-02T03:00:37;100091.72;;;17.28;64.36
71795;BME280;59641;45.188;5.712;2022-11-02T03:03:04;100096.06;;;17.29;64.46
71795;BME280;59641;45.188;5.712;2022-11-02T03:05:34;100080.28;;;17.26;64.49
71795;BME280;59641;45.188;5.712;2022-11-02T03:08:11;100086.78;;;17.25;64.56
71795;BME280;59641;45.188;5.712;2022-11-02T03:10:52;100085.97;;;17.24;64.28
71795;BME280;59641;45.188;5.712;2022-11-02T03:16:05;100077.84;;;17.24;64.32
71795;BME280;59641;45.188;5.712;2022-11-02T03:18:52;100085.13;;;17.24;64.36
71795;BME280;59641;45.188;5.712;2022-11-02T03:29:40;100085.78;;;17.14;64.28
71795;BME280;59641;45.188;5.712;2022-11-02T03:32:20;100090.16;;;17.15;64.63
71795;BME280;59641;45.188;5.712;2022-11-02T03:34:54;100086.34;;;17.16;64.48
71795;BME280;59641;45.188;5.712;2022-11-02T03:37:28;100082.59;;;17.17;64.18
71795;BME280;59641;45.188;5.712;2022-11-02T03:40:06;100094.72;;;17.15;64.55
71795;BME280;59641;45.188;5.712;2022-11-02T03:42:36;100090.38;;;17.14;64.04
71795;BME280;59641;45.188;5.712;2022-11-02T03:45:14;100091.69;;;17.11;64.20
71795;BME280;59641;45.188;5.712;2022-11-02T03:47:44;100094.91;;;17.08;63.99
71795;BME280;59641;45.188;5.712;2022-11-02T03:50:13;100094.56;;;17.04;64.20
71795;BME280;59641;45.188;5.712;2022-11-02T03:52:43;100097.28;;;17.04;64.50
71795;BME280;59641;45.188;5.712;2022-11-02T03:55:25;100099.16;;;17.04;64.41
71795;BME280;59641;45.188;5.712;2022-11-02T03:57:53;100096.47;;;17.04;64.65
71795;BME280;59641;45.188;5.712;2022-11-02T04:00:23;100093.25;;;17.07;64.47
71795;BME280;59641;45.188;5.712;2022-11-02T04:02:53;100087.00;;;17.07;64.45
71795;BME280;59641;45.188;5.712;2022-11-02T04:05:27;100085.94;;;17.08;64.15
71795;BME280;59641;45.188;5.712;2022-11-02T04:07:54;100086.50;;;17.10;64.23
71795;BME280;59641;45.188;5.712;2022-11-02T04:10:44;100085.69;;;17.09;64.04
71795;BME280;59641;45.188;5.712;2022-11-02T04:13:29;100084.88;;;17.09;64.66
71795;BME280;59641;45.188;5.712;2022-11-02T04:16:14;100089.50;;;17.08;64.30
71795;BME280;59641;45.188;5.712;2022-11-02T04:18:40;100089.50;;;17.08;64.56
71795;BME280;59641;45.188;5.712;2022-11-02T04:21:24;100101.38;;;17.07;64.54
71795;BME280;59641;45.188;5.712;2022-11-02T04:23:50;100103.88;;;17.09;64.43
71795;BME280;59641;45.188;5.712;2022-11-02T04:26:33;100101.47;;;17.12;64.76
71795;BME280;59641;45.188;5.712;2022-11-02T04:28:59;100102.06;;;17.14;64.24
71795;BME280;59641;45.188;5.712;2022-11-02T04:31:24;100110.53;;;17.18;64.43
71795;BME280;59641;45.188;5.712;2022-11-02T04:33:50;100107.25;;;17.16;64.23
71795;BME280;59641;45.188;5.712;2022-11-02T04:36:15;100103.44;;;17.17;64.20
71795;BME280;59641;45.188;5.712;2022-11-02T04:38:41;100112.66;;;17.16;64.07
71795;BME280;59641;45.188;5.712;2022-11-02T04:41:12;100106.06;;;17.12;63.98
71795;BME280;59641;45.188;5.712;2022-11-02T04:44:13;100111.50;;;17.12;64.30
71795;BME280;59641;45.188;5.712;2022-11-02T04:46:39;100110.44;;;17.13;64.54
71795;BME280;59641;45.188;5.712;2022-11-02T04:49:06;100108.28;;;17.15;64.71
71795;BME280;59641;45.188;5.712;2022-11-02T04:51:32;100107.81;;;17.18;64.63
71795;BME280;59641;45.188;5.712;2022-11-02T04:53:58;100110.28;;;17.19;64.63
71795;BME280;59641;45.188;5.712;2022-11-02T04:56:25;100111.13;;;17.20;64.70
71795;BME280;59641;45.188;5.712;2022-11-02T04:58:56;100112.50;;;17.22;64.56
71795;BME280;59641;45.188;5.712;2022-11-02T05:01:23;100121.22;;;17.24;64.61
71795;BME280;59641;45.188;5.712;2022-11-02T05:03:50;100116.34;;;17.27;64.68
71795;BME280;59641;45.188;5.712;2022-11-02T05:06:18;100123.44;;;17.28;64.79
71795;BME280;59641;45.188;5.712;2022-11-02T05:08:44;100123.09;;;17.24;64.37
71795;BME280;59641;45.188;5.712;2022-11-02T05:11:12;100122.84;;;17.25;64.68
71795;BME280;59641;45.188;5.712;2022-11-02T05:13:39;100126.97;;;17.28;64.54
71795;BME280;59641;45.188;5.712;2022-11-02T05:16:10;100132.41;;;17.28;64.85
71795;BME280;59641;45.188;5.712;2022-11-02T05:18:35;100134.03;;;17.29;64.79
71795;BME280;59641;45.188;5.712;2022-11-02T05:21:01;100133.78;;;17.31;64.80
71795;BME280;59641;45.188;5.712;2022-11-02T05:23:27;100133.56;;;17.32;64.29
71795;BME280;59641;45.188;5.712;2022-11-02T05:26:00;100137.91;;;17.33;64.58
71795;BME280;59641;45.188;5.712;2022-11-02T05:28:27;100137.31;;;17.31;64.90
71795;BME280;59641;45.188;5.712;2022-11-02T05:30:53;100143.25;;;17.28;64.92
71795;BME280;59641;45.188;5.712;2022-11-02T05:33:20;100142.94;;;17.24;64.54
71795;BME280;59641;45.188;5.712;2022-11-02T05:35:45;100150.81;;;17.26;64.77
71795;BME280;59641;45.188;5.712;2022-11-02T05:38:11;100152.19;;;17.29;64.61
71795;BME280;59641;45.188;5.712;2022-11-02T05:40:37;100153.28;;;17.28;64.63
71795;BME280;59641;45.188;5.712;2022-11-02T05:43:06;100156.22;;;17.26;64.42
71795;BME280;59641;45.188;5.712;2022-11-02T05:45:32;100152.69;;;17.25;64.77
71795;BME280;59641;45.188;5.712;2022-11-02T05:48:03;100151.06;;;17.24;64.50
71795;BME280;59641;45.188;5.712;2022-11-02T05:50:32;100160.25;;;17.23;64.94
71795;BME280;59641;45.188;5.712;2022-11-02T05:52:57;100158.34;;;17.24;64.49
71795;BME280;59641;45.188;5.712;2022-11-02T05:55:23;100163.53;;;17.25;64.50
71795;BME280;59641;45.188;5.712;2022-11-02T05:57:53;100168.97;;;17.25;64.69
71795;BME280;59641;45.188;5.712;2022-11-02T06:00:20;100158.84;;;17.21;64.50
71795;BME280;59641;45.188;5.712;2022-11-02T06:02:46;100171.81;;;17.19;64.71
71795;BME280;59641;45.188;5.712;2022-11-02T06:05:12;100173.97;;;17.17;64.48
71795;BME280;59641;45.188;5.712;2022-11-02T06:07:38;100174.81;;;17.17;64.90
71795;BME280;59641;45.188;5.712;2022-11-02T06:10:04;100172.09;;;17.17;64.71
71795;BME280;59641;45.188;5.712;2022-11-02T06:12:29;100169.59;;;17.16;64.98
71795;BME280;59641;45.188;5.712;2022-11-02T06:14:55;100174.44;;;17.14;65.03
71795;BME280;59641;45.188;5.712;2022-11-02T06:17:20;100176.34;;;17.13;64.61
71795;BME280;59641;45.188;5.712;2022-11-02T06:19:46;100181.19;;;17.11;65.05
71795;BME280;59641;45.188;5.712;2022-11-02T06:22:12;100179.56;;;17.10;64.91
71795;BME280;59641;45.188;5.712;2022-11-02T06:24:37;100191.22;;;17.11;65.07
71795;BME280;59641;45.188;5.712;2022-11-02T06:27:02;100185.69;;;17.06;65.09
71795;BME280;59641;45.188;5.712;2022-11-02T06:29:28;100186.44;;;17.01;65.51
71795;BME280;59641;45.188;5.712;2022-11-02T06:31:54;100192.56;;;16.96;65.05
71795;BME280;59641;45.188;5.712;2022-11-02T06:34:19;100192.47;;;16.91;65.08
71795;BME280;59641;45.188;5.712;2022-11-02T06:36:45;100190.00;;;16.90;65.37
71795;BME280;59641;45.188;5.712;2022-11-02T06:39:10;100203.53;;;16.90;65.91
71795;BME280;59641;45.188;5.712;2022-11-02T06:41:36;100203.78;;;16.88;65.88
71795;BME280;59641;45.188;5.712;2022-11-02T06:44:02;100206.75;;;16.87;65.86
71795;BME280;59641;45.188;5.712;2022-11-02T06:46:27;100209.19;;;16.88;66.18
71795;BME280;59641;45.188;5.712;2022-11-02T06:48:53;100207.06;;;16.90;66.03
71795;BME280;59641;45.188;5.712;2022-11-02T06:51:38;100217.91;;;16.90;66.16
71795;BME280;59641;45.188;5.712;2022-11-02T06:54:03;100220.88;;;16.89;65.89
71795;BME280;59641;45.188;5.712;2022-11-02T06:56:29;100214.88;;;16.87;66.22
71795;BME280;59641;45.188;5.712;2022-11-02T06:58:55;100216.03;;;16.91;66.30
71795;BME280;59641;45.188;5.712;2022-11-02T07:01:20;100217.47;;;16.93;66.30
71795;BME280;59641;45.188;5.712;2022-11-02T07:03:46;100213.91;;;16.93;66.16
71795;BME280;59641;45.188;5.712;2022-11-02T07:06:11;100216.16;;;16.96;66.18
71795;BME280;59641;45.188;5.712;2022-11-02T07:08:36;100227.00;;;16.96;66.34
71795;BME280;59641;45.188;5.712;2022-11-02T07:11:02;100225.44;;;17.00;65.99
71795;BME280;59641;45.188;5.712;2022-11-02T07:13:27;100227.31;;;16.99;66.31
71795;BME280;59641;45.188;5.712;2022-11-02T07:15:53;100227.31;;;16.99;66.40
71795;BME280;59641;45.188;5.712;2022-11-02T07:18:20;100223.56;;;17.00;65.96
71795;BME280;59641;45.188;5.712;2022-11-02T07:20:45;100234.97;;;17.02;66.19
71795;BME280;59641;45.188;5.712;2022-11-02T07:23:11;100233.09;;;17.03;66.17
71795;BME280;59641;45.188;5.712;2022-11-02T07:25:36;100236.16;;;17.07;66.43
71795;BME280;59641;45.188;5.712;2022-11-02T07:28:02;100234.84;;;17.09;66.30
71795;BME280;59641;45.188;5.712;2022-11-02T07:30:32;100228.91;;;17.12;66.33
71795;BME280;59641;45.188;5.712;2022-11-02T07:32:58;100227.59;;;17.15;66.17
71795;BME280;59641;45.188;5.712;2022-11-02T07:35:24;100224.91;;;17.15;66.24
71795;BME280;59641;45.188;5.712;2022-11-02T07:38:04;100232.56;;;17.18;65.77
71795;BME280;59641;45.188;5.712;2022-11-02T07:40:32;100235.88;;;17.20;65.80
71795;BME280;59641;45.188;5.712;2022-11-02T07:42:58;100230.78;;;17.23;66.02
71795;BME280;59641;45.188;5.712;2022-11-02T07:45:24;100233.25;;;17.25;66.00
71795;BME280;59641;45.188;5.712;2022-11-02T07:47:50;100235.97;;;17.25;66.09
71795;BME280;59641;45.188;5.712;2022-11-02T07:50:18;100247.72;;;17.31;66.13
71795;BME280;59641;45.188;5.712;2022-11-02T07:52:52;100242.06;;;17.32;66.08
71795;BME280;59641;45.188;5.712;2022-11-02T07:55:20;100244.06;;;17.37;65.67
71795;BME280;59641;45.188;5.712;2022-11-02T07:58:03;100242.16;;;17.37;65.61
71795;BME280;59641;45.188;5.712;2022-11-02T08:00:30;100239.66;;;17.36;66.16
71795;BME280;59641;45.188;5.712;2022-11-02T08:02:58;100245.69;;;17.38;65.83
71795;BME280;59641;45.188;5.712;2022-11-02T08:05:24;100238.13;;;17.40;65.95
71795;BME280;59641;45.188;5.712;2022-11-02T08:08:01;100242.25;;;17.42;66.00
71795;BME280;59641;45.188;5.712;2022-11-02T08:10:27;100243.88;;;17.43;65.95
71795;BME280;59641;45.188;5.712;2022-11-02T08:12:54;100247.44;;;17.44;66.09
71795;BME280;59641;45.188;5.712;2022-11-02T08:15:19;100247.16;;;17.45;65.81
71795;BME280;59641;45.188;5.712;2022-11-02T08:17:45;100237.13;;;17.46;65.50
71795;BME280;59641;45.188;5.712;2022-11-02T08:20:11;100242.34;;;17.48;65.52
71795;BME280;59641;45.188;5.712;2022-11-02T08:22:37;100241.84;;;17.51;65.89
71795;BME280;59641;45.188;5.712;2022-11-02T08:25:03;100238.06;;;17.52;65.62
71795;BME280;59641;45.188;5.712;2022-11-02T08:27:29;100246.31;;;17.57;65.83
71795;BME280;59641;45.188;5.712;2022-11-02T08:29:54;100250.66;;;17.58;65.56
71795;BME280;59641;45.188;5.712;2022-11-02T08:32:20;100246.38;;;17.62;65.78
71795;BME280;59641;45.188;5.712;2022-11-02T08:34:45;100240.13;;;17.61;65.65
71795;BME280;59641;45.188;5.712;2022-11-02T08:37:14;100237.75;;;17.65;65.61
71795;BME280;59641;45.188;5.712;2022-11-02T08:39:39;100240.22;;;17.66;65.65
71795;BME280;59641;45.188;5.712;2022-11-02T08:42:05;100236.44;;;17.67;65.62
71795;BME280;59641;45.188;5.712;2022-11-02T08:44:30;100242.44;;;17.70;65.74
71795;BME280;59641;45.188;5.712;2022-11-02T08:46:55;100238.69;;;17.71;65.29
71795;BME280;59641;45.188;5.712;2022-11-02T08:49:21;100242.22;;;17.71;65.52
71795;BME280;59641;45.188;5.712;2022-11-02T08:51:47;100239.72;;;17.70;65.60
71795;BME280;59641;45.188;5.712;2022-11-02T08:54:12;100241.38;;;17.71;65.27
71795;BME280;59641;45.188;5.712;2022-11-02T08:56:38;100238.19;;;17.74;65.55
71795;BME280;59641;45.188;5.712;2022-11-02T08:59:04;100225.69;;;17.73;65.27
71795;BME280;59641;45.188;5.712;2022-11-02T09:01:29;100228.41;;;17.73;65.64
71795;BME280;59641;45.188;5.712;2022-11-02T09:03:54;100219.09;;;17.68;65.45
71795;BME280;59641;45.188;5.712;2022-11-02T09:06:20;100213.91;;;17.67;65.62
71795;BME280;59641;45.188;5.712;2022-11-02T09:08:45;100213.91;;;17.67;65.29
71795;BME280;59641;45.188;5.712;2022-11-02T09:11:11;100209.56;;;17.66;65.68
71795;BME280;59641;45.188;5.712;2022-11-02T09:13:37;100209.56;;;17.66;65.66
71795;BME280;59641;45.188;5.712;2022-11-02T09:16:03;100199.50;;;17.66;66.06
71795;BME280;59641;45.188;5.712;2022-11-02T09:18:28;100200.91;;;17.69;65.61
71795;BME280;59641;45.188;5.712;2022-11-02T09:20:54;100204.22;;;17.71;66.00
71795;BME280;59641;45.188;5.712;2022-11-02T09:23:20;100211.78;;;17.69;66.06
71795;BME280;59641;45.188;5.712;2022-11-02T09:25:46;100200.09;;;17.68;66.35
71795;BME280;59641;45.188;5.712;2022-11-02T09:28:12;100196.06;;;17.71;65.98
71795;BME280;59641;45.188;5.712;2022-11-02T09:30:39;100191.22;;;17.73;66.07
71795;BME280;59641;45.188;5.712;2022-11-02T09:33:05;100187.75;;;17.78;65.84
71795;BME280;59641;45.188;5.712;2022-11-02T09:35:33;100190.00;;;17.81;65.45
71795;BME280;59641;45.188;5.712;2022-11-02T09:37:59;100180.53;;;17.83;65.46
71795;BME280;59641;45.188;5.712;2022-11-02T09:40:27;100187.38;;;17.86;65.48
71795;BME280;59641;45.188;5.712;2022-11-02T09:46:12;100182.59;;;17.93;65.31
71795;BME280;59641;45.188;5.712;2022-11-02T09:48:49;100175.59;;;17.97;64.93
71795;BME280;59641;45.188;5.712;2022-11-02T09:51:24;100176.81;;;18.06;65.05
71795;BME280;59641;45.188;5.712;2022-11-02T09:56:39;100168.47;;;18.13;63.80
71795;BME280;59641;45.188;5.712;2022-11-02T09:59:23;100161.47;;;18.17;64.22
71795;BME280;59641;45.188;5.712;2022-11-02T10:05:23;100168.19;;;18.31;63.09
71795;BME280;59641;45.188;5.712;2022-11-02T10:08:00;100159.81;;;18.33;62.95
71795;BME280;59641;45.188;5.712;2022-11-02T10:10:33;100152.22;;;18.35;63.47
71795;BME280;59641;45.188;5.712;2022-11-02T10:15:54;100151.25;;;18.46;63.11
71795;BME280;59641;45.188;5.712;2022-11-02T10:18:27;100150.00;;;18.54;62.84
71795;BME280;59641;45.188;5.712;2022-11-02T10:21:05;100150.91;;;18.60;62.42
71795;BME280;59641;45.188;5.712;2022-11-02T10:23:37;100153.69;;;18.65;62.01
71795;BME280;59641;45.188;5.712;2022-11-02T10:26:04;100157.22;;;18.65;61.70
71795;BME280;59641;45.188;5.712;2022-11-02T10:28:33;100153.41;;;18.66;61.92
71795;BME280;59641;45.188;5.712;2022-11-02T10:31:00;100147.19;;;18.71;61.16
71795;BME280;59641;45.188;5.712;2022-11-02T10:33:28;100144.00;;;18.74;61.25
71795;BME280;59641;45.188;5.712;2022-11-02T10:38:52;100142.69;;;18.77;60.72
71795;BME280;59641;45.188;5.712;2022-11-02T10:44:58;100135.41;;;18.82;60.92
71795;BME280;59641;45.188;5.712;2022-11-02T10:47:38;100126.78;;;18.90;60.53
71795;BME280;59641;45.188;5.712;2022-11-02T10:50:30;100124.69;;;18.98;60.61
71795;BME280;59641;45.188;5.712;2022-11-02T10:53:01;100111.97;;;19.03;59.63
71795;BME280;59641;45.188;5.712;2022-11-02T10:55:44;100118.25;;;19.09;60.00
71795;BME280;59641;45.188;5.712;2022-11-02T10:58:17;100119.66;;;19.11;58.91
71795;BME280;59641;45.188;5.712;2022-11-02T11:00:44;100109.91;;;19.15;58.39
71795;BME280;59641;45.188;5.712;2022-11-02T11:03:11;100108.31;;;19.20;58.75
71795;BME280;59641;45.188;5.712;2022-11-02T11:08:40;100097.75;;;19.28;59.51
71795;BME280;59641;45.188;5.712;2022-11-02T11:13:42;100091.81;;;19.31;58.38
71795;BME280;59641;45.188;5.712;2022-11-02T11:16:09;100086.09;;;19.33;58.60
71795;BME280;59641;45.188;5.712;2022-11-02T11:18:36;100082.56;;;19.32;57.49
71795;BME280;59641;45.188;5.712;2022-11-02T11:21:02;100067.88;;;19.33;58.02
71795;BME280;59641;45.188;5.712;2022-11-02T11:23:28;100073.31;;;19.33;57.48
71795;BME280;59641;45.188;5.712;2022-11-02T11:25:59;100071.97;;;19.36;57.53
71795;BME280;59641;45.188;5.712;2022-11-02T11:28:30;100071.72;;;19.37;57.16
71795;BME280;59641;45.188;5.712;2022-11-02T11:31:04;100065.50;;;19.42;57.60
71795;BME280;59641;45.188;5.712;2022-11-02T11:33:31;100063.34;;;19.44;56.35
71795;BME280;59641;45.188;5.712;2022-11-02T11:35:58;100060.88;;;19.48;56.84
71795;BME280;59641;45.188;5.712;2022-11-02T11:38:25;100051.66;;;19.49;56.73
71795;BME280;59641;45.188;5.712;2022-11-02T11:40:54;100044.34;;;19.54;56.43
71795;BME280;59641;45.188;5.712;2022-11-02T11:43:25;100050.03;;;19.53;55.61
71795;BME280;59641;45.188;5.712;2022-11-02T11:45:59;100038.91;;;19.54;56.53
71795;BME280;59641;45.188;5.712;2022-11-02T11:56:30;100024.81;;;19.63;55.21
71795;BME280;59641;45.188;5.712;2022-11-02T11:58:56;100021.56;;;19.66;55.75
71795;BME280;59641;45.188;5.712;2022-11-02T12:01:22;100018.53;;;19.67;54.48
71795;BME280;59641;45.188;5.712;2022-11-02T12:03:56;100012.88;;;19.69;54.78
71795;BME280;59641;45.188;5.712;2022-11-02T12:06:28;100011.78;;;19.70;54.87
71795;BME280;59641;45.188;5.712;2022-11-02T12:09:18;99998.44;;;19.68;54.72
71795;BME280;59641;45.188;5.712;2022-11-02T12:12:00;100009.06;;;19.70;54.49
71795;BME280;59641;45.188;5.712;2022-11-02T12:15:01;100000.06;;;19.69;54.50
71795;BME280;59641;45.188;5.712;2022-11-02T12:31:03;99980.75;;;19.71;54.35
71795;BME280;59641;45.188;5.712;2022-11-02T12:34:02;99976.44;;;19.75;54.71
71795;BME280;59641;45.188;5.712;2022-11-02T12:42:20;99966.63;;;19.79;55.24
71795;BME280;59641;45.188;5.712;2022-11-02T12:47:54;99957.09;;;19.82;54.58
71795;BME280;59641;45.188;5.712;2022-11-02T12:51:13;99959.31;;;19.85;54.94
71795;BME280;59641;45.188;5.712;2022-11-02T12:53:36;99958.22;;;19.86;54.27
71795;BME280;59641;45.188;5.712;2022-11-02T12:56:09;99958.78;;;19.88;54.01
71795;BME280;59641;45.188;5.712;2022-11-02T12:58:38;99952.22;;;19.89;53.54
71795;BME280;59641;45.188;5.712;2022-11-02T13:04:14;99962.31;;;19.93;52.60
71795;BME280;59641;45.188;5.712;2022-11-02T13:06:48;99957.44;;;19.95;53.44
71795;BME280;59641;45.188;5.712;2022-11-02T13:12:01;99949.28;;;20.00;53.86
71795;BME280;59641;45.188;5.712;2022-11-02T13:14:33;99943.31;;;20.04;53.99
71795;BME280;59641;45.188;5.712;2022-11-02T13:17:10;99940.03;;;20.07;53.22
71795;BME280;59641;45.188;5.712;2022-11-02T13:19:42;99944.41;;;20.08;53.69
71795;BME280;59641;45.188;5.712;2022-11-02T13:22:11;99936.78;;;20.10;53.85
71795;BME280;59641;45.188;5.712;2022-11-02T13:24:42;99940.31;;;20.10;54.20
71795;BME280;59641;45.188;5.712;2022-11-02T13:27:24;99924.25;;;20.09;54.93
71795;BME280;59641;45.188;5.712;2022-11-02T13:29:53;99928.59;;;20.10;53.52
71795;BME280;59641;45.188;5.712;2022-11-02T13:32:34;99929.41;;;20.10;53.33
71795;BME280;59641;45.188;5.712;2022-11-02T13:35:10;99929.16;;;20.12;53.02
71795;BME280;59641;45.188;5.712;2022-11-02T13:37:40;99926.44;;;20.12;53.52
71795;BME280;59641;45.188;5.712;2022-11-02T13:40:30;99927.25;;;20.12;53.77
71795;BME280;59641;45.188;5.712;2022-11-02T13:48:24;99922.03;;;20.06;50.93
71795;BME280;59641;45.188;5.712;2022-11-02T13:50:57;99913.63;;;20.07;52.67
71795;BME280;59641;45.188;5.712;2022-11-02T13:53:35;99912.81;;;20.07;52.76
71795;BME280;59641;45.188;5.712;2022-11-02T13:56:10;99908.97;;;20.08;53.34
71795;BME280;59641;45.188;5.712;2022-11-02T13:58:46;99908.97;;;20.08;53.80
71795;BME280;59641;45.188;5.712;2022-11-02T14:01:16;99894.28;;;20.09;52.92
71795;BME280;59641;45.188;5.712;2022-11-02T14:03:50;99894.84;;;20.11;53.52
71795;BME280;59641;45.188;5.712;2022-11-02T14:06:18;99891.00;;;20.12;54.12
71795;BME280;59641;45.188;5.712;2022-11-02T14:08:50;99888.28;;;20.12;52.68
71795;BME280;59641;45.188;5.712;2022-11-02T14:27:02;99876.59;;;20.16;53.85
71795;BME280;59641;45.188;5.712;2022-11-02T14:29:55;99872.75;;;20.17;54.13
71795;BME280;59641;45.188;5.712;2022-11-02T14:35:12;99872.75;;;20.17;53.65
71795;BME280;59641;45.188;5.712;2022-11-02T14:37:56;99869.22;;;20.17;53.63
71795;BME280;59641;45.188;5.712;2022-11-02T14:40:37;99870.03;;;20.17;53.81
71795;BME280;59641;45.188;5.712;2022-11-02T14:48:50;99867.84;;;20.14;53.94
71795;BME280;59641;45.188;5.712;2022-11-02T14:51:28;99872.22;;;20.15;54.04
71795;BME280;59641;45.188;5.712;2022-11-02T14:56:51;99864.88;;;20.16;54.02
71795;BME280;59641;45.188;5.712;2022-11-02T14:59:24;99865.69;;;20.16;55.35
71795;BME280;59641;45.188;5.712;2022-11-02T15:01:59;99868.13;;;20.13;55.28
71795;BME280;59641;45.188;5.712;2022-11-02T15:04:27;99866.25;;;20.13;55.20